Terminal Aerodrome Forecast
Issued by NWS

Home | Current Version | Previous Version | Text Only | Print | Product List | Glossary On
Versions: 1 2 3 4 5 6 7 8 9 10 11 12 13 14 15 16 17 18 19 20 21 22 23 24 25
530
FTUS43 KAPX 160652 AAA
TAFMBL
TAF AMD
KMBL 160652Z 1607/1706 04004KT P6SM -SHSN BKN050
     FM161700 03007KT 6SM -SHSN OVC025
     FM170200 VRB03KT 5SM -SHSN OVC020=

USA.gov is the U.S. government's official web portal to all federal, state and local government web resources and services.